This is the latest recevied weather packets stored in our database for station/object WD8EHT. If no packets are shown the sender has not sent any weather packets the latest 1 day(s).
| Time | Temp. | Humidity | Pressure | Rain* | Wind** | Luminosity | Snow |
|---|---|---|---|---|---|---|---|
| 1778031655 | 8.89° C | 55% | 1007.2 hPa | 0 mm | 0 m/s | 0 W/m² | - |
| 1778031353 | 8.89° C | 54% | 1007 hPa | 0 mm | 0 m/s | 0 W/m² | - |
| 1778031050 | 8.89° C | 54% | 1007 hPa | 0 mm | 0 m/s | 0 W/m² | - |
| 1778030746 | 8.89° C | 52% | 1006.9 hPa | 0 mm | 0 m/s | 0 W/m² | - |
| 1778030443 | 8.89° C | 51% | 1006.8 hPa | 0 mm | 0 m/s | 0 W/m² | - |
| 1778030141 | 9.44° C | 52% | 1007 hPa | 0 mm | 0 m/s | 0 W/m² | - |
| 1778029836 | 9.44° C | 51% | 1006.7 hPa | 0 mm | 0 m/s | 0 W/m² | - |
| 1778029531 | 9.44° C | 51% | 1006.9 hPa | 0 mm | 0 m/s | 0 W/m² | - |
| 1778029227 | 9.44° C | 50% | 1006.6 hPa | 0 mm | 0 m/s | 0 W/m² | - |
| 1778028924 | 9.44° C | 51% | 1006.7 hPa | 0 mm | 0 m/s | 0 W/m² | - |
| 1778028619 | 10° C | 52% | 1006.7 hPa | 0 mm | 0 m/s | 0 W/m² | - |
| 1778028317 | 10° C | 50% | 1006.8 hPa | 0 mm | 0.45 m/s, 337° | 0 W/m² | - |
| 1778028013 | 10° C | 51% | 1006.6 hPa | 0 mm | 0 m/s | 1 W/m² | - |
| 1778027710 | 10.56° C | 52% | 1006.8 hPa | 0 mm | 0 m/s | 2 W/m² | - |
| 1778027406 | 10.56° C | 49% | 1006.7 hPa | 0 mm | 0 m/s | 4 W/m² | - |
| 1778027102 | 10.56° C | 49% | 1006.8 hPa | 0 mm | 0 m/s | 5 W/m² | - |
| 1778026798 | 10.56° C | 50% | 1006.8 hPa | 0 mm | 0.45 m/s, 354° | 6 W/m² | - |
| 1778026495 | 10.56° C | 49% | 1006.8 hPa | 0 mm | 0.45 m/s, 342° | 9 W/m² | - |
| 1778026192 | 10.56° C | 51% | 1006.7 hPa | 0 mm | 0 m/s | 9 W/m² | - |
| 1778025889 | 10.56° C | 49% | 1006.6 hPa | 0 mm | 0 m/s | 9 W/m² | - |
| 1778025586 | 10.56° C | 49% | 1006.9 hPa | 0 mm | 0.45 m/s, 351° | 11 W/m² | - |
| 1778025285 | 10.56° C | 50% | 1006.7 hPa | 0 mm | 0 m/s | 16 W/m² | - |
| 1778024981 | 10.56° C | 49% | 1006.7 hPa | 0 mm | 0.45 m/s, 293° | 16 W/m² | - |
| 1778024679 | 10.56° C | 48% | 1006.6 hPa | 0 mm | 0.45 m/s, 14° | 16 W/m² | - |
| 1778024375 | 10.56° C | 48% | 1006.8 hPa | 0 mm | 0.89 m/s, 333° | 18 W/m² | - |
* Rain latest hour (hover to see other rain measurements)
** Current wind speed in m/s (hover to see current wind gust speed)